Time;durP1;ratioP1;P1;durP2;ratioP2;P2;SDS_P1;SDS_P2;PMS_P1;PMS_P2;Temp;Humidity;BMP_temperature;BMP_pressure;BME280_temperature;BME280_humidity;BME280_pressure;Samples;Min_cycle;Max_cycle;Signal;HPM_P1;HPM_P2
2022/06/22 00:00:12;;;;;;;;;19.50;18.50;;;;;26.23;49.71;100386.13;146607;633;46018;-73
2022/06/22 00:03:04;;;;;;;;;20.75;19.75;;;;;26.13;49.33;100391.59;146607;576;46008;-71
2022/06/22 00:05:56;;;;;;;;;22.50;20.50;;;;;26.06;49.68;100385.53;146607;645;46020;-71
2022/06/22 00:08:48;;;;;;;;;24.75;21.00;;;;;25.94;50.26;100380.44;146607;569;46010;-71
2022/06/22 00:11:47;;;;;;;;;27.50;21.75;;;;;25.80;50.60;100378.00;146626;565;46012;-67
2022/06/22 00:14:50;;;;;;;;;25.75;23.50;;;;;25.71;49.69;100372.81;146629;575;45018;-68
2022/06/22 00:17:43;;;;;;;;;24.00;22.75;;;;;23.23;50.45;99955.84;146627;584;46010;-68
2022/06/22 00:20:36;;;;;;;;;22.00;19.50;;;;;25.69;51.01;100375.50;146630;648;45018;-70
2022/06/22 00:23:48;;;;;;;;;21.25;19.25;;;;;25.68;50.15;100375.53;146629;620;45018;-68
2022/06/22 00:26:40;;;;;;;;;18.00;16.25;;;;;25.63;50.35;100366.75;146626;581;46018;-71
2022/06/22 00:29:41;;;;;;;;;20.00;19.25;;;;;25.60;49.14;100370.34;146632;626;45010;-71
2022/06/22 00:32:34;;;;;;;;;24.25;20.25;;;;;25.61;50.18;100364.12;146627;565;45019;-70
2022/06/22 00:35:45;;;;;;;;;21.25;18.00;;;;;25.67;48.88;100368.44;146632;578;45010;-69
2022/06/22 00:38:37;;;;;;;;;22.25;22.00;;;;;25.76;49.41;100368.28;146628;580;45010;-71
2022/06/22 00:41:29;;;;;;;;;21.00;19.25;;;;;25.84;49.67;100376.19;146625;575;46010;-71
2022/06/22 00:44:23;;;;;;;;;20.50;18.75;;;;;25.87;49.76;100379.66;146624;619;45018;-72
2022/06/22 00:47:31;;;;;;;;;19.75;17.75;;;;;25.83;49.20;100379.75;146629;592;45018;-72
2022/06/22 00:50:30;;;;;;;;;16.00;16.00;;;;;25.73;49.88;100387.84;146631;579;46010;-70
2022/06/22 00:53:56;;;;;;;;;24.25;22.50;;;;;23.73;51.01;100065.47;146629;645;45018;-74
2022/06/22 00:56:58;;;;;;;;;20.50;20.00;;;;;25.41;50.98;100377.72;146633;576;44019;-76
2022/06/22 01:00:04;;;;;;;;;21.00;20.25;;;;;25.27;50.90;100383.25;146629;580;46010;-75
2022/06/22 01:03:03;;;;;;;;;23.75;22.75;;;;;25.22;50.83;100376.22;146627;590;46008;-75
2022/06/22 01:06:18;;;;;;;;;24.25;23.00;;;;;25.20;50.63;100378.88;146629;583;45012;-72
2022/06/22 01:09:42;;;;;;;;;20.25;19.25;;;;;25.19;51.13;100382.47;146630;625;45021;-71
2022/06/22 01:13:01;;;;;;;;;25.25;22.25;;;;;25.14;51.04;100384.31;146610;602;46010;-71
2022/06/22 01:16:10;;;;;;;;;24.00;22.25;;;;;25.02;50.75;100381.81;146608;608;46018;-71
2022/06/22 01:19:52;;;;;;;;;17.25;17.25;;;;;23.10;50.62;100062.69;146608;609;46010;-71
2022/06/22 01:23:11;;;;;;;;;21.25;18.00;;;;;24.97;50.86;100388.94;146609;668;46008;-71
2022/06/22 01:26:32;;;;;;;;;22.25;22.00;;;;;24.93;50.84;100382.78;146608;639;46010;-71
2022/06/22 01:29:27;;;;;;;;;20.75;20.75;;;;;24.92;52.57;100380.13;146607;601;46010;-71
2022/06/22 01:32:25;;;;;;;;;23.00;23.00;;;;;24.92;51.73;100378.38;146607;571;45019;-70
2022/06/22 01:35:30;;;;;;;;;21.75;19.50;;;;;24.94;50.55;100381.00;146606;618;46010;-70
2022/06/22 01:38:31;;;;;;;;;21.00;19.50;;;;;24.97;50.82;100383.63;146610;601;45040;-71
2022/06/22 01:41:48;;;;;;;;;18.00;17.75;;;;;25.01;49.89;100374.72;146609;566;46008;-71
2022/06/22 01:45:28;;;;;;;;;21.25;21.25;;;;;23.51;49.43;100105.41;146609;600;46018;-71
2022/06/22 01:48:28;;;;;;;;;22.00;20.50;;;;;25.11;51.43;100379.03;146608;584;46008;-70
2022/06/22 01:51:42;;;;;;;;;20.75;20.00;;;;;25.06;50.05;100376.41;146608;564;46018;-69
2022/06/22 01:54:43;;;;;;;;;21.25;19.75;;;;;25.04;50.48;100374.69;146607;565;46010;-72
2022/06/22 01:57:42;;;;;;;;;22.75;20.75;;;;;25.05;50.52;100366.72;146604;588;46018;-71
2022/06/22 02:00:35;;;;;;;;;22.00;19.75;;;;;25.02;51.35;100372.06;146606;577;46019;-70
2022/06/22 02:03:40;;;;;;;;;23.00;21.50;;;;;24.95;51.16;100373.03;146607;596;46019;-70
2022/06/22 02:10:19;;;;;;;;;16.25;16.25;;;;;24.87;51.28;100381.09;146608;566;46011;-70
2022/06/22 02:13:54;;;;;;;;;20.50;18.25;;;;;24.81;50.64;100377.66;146607;757;46018;-71
2022/06/22 02:16:58;;;;;;;;;22.25;21.25;;;;;24.73;51.88;100383.03;146607;590;46011;-69
2022/06/22 02:20:27;;;;;;;;;21.50;18.50;;;;;22.59;51.83;100034.94;146611;580;46018;-70
2022/06/22 02:23:35;;;;;;;;;23.00;21.00;;;;;24.54;52.90;100376.19;146604;570;46018;-68
2022/06/22 02:26:50;;;;;;;;;19.25;19.00;;;;;24.50;51.91;100379.78;146605;564;46018;-69
2022/06/22 02:29:51;;;;;;;;;20.25;19.25;;;;;24.47;52.53;100378.03;146611;611;46010;-70
2022/06/22 02:32:47;;;;;;;;;20.25;19.00;;;;;24.47;52.16;100380.69;146607;601;46008;-71
2022/06/22 02:35:42;;;;;;;;;19.00;19.00;;;;;24.51;51.46;100382.41;146611;580;46010;-73
2022/06/22 02:38:35;;;;;;;;;20.75;20.75;;;;;24.57;51.13;100382.34;146608;570;46008;-72
2022/06/22 02:44:43;;;;;;;;;17.00;16.00;;;;;24.72;50.96;100381.28;146610;617;45046;-70
2022/06/22 02:47:50;;;;;;;;;23.00;19.25;;;;;24.76;50.67;100372.37;146608;613;46010;-72
2022/06/22 02:51:14;;;;;;;;;17.00;16.25;;;;;24.13;49.47;100255.62;146605;619;46010;-71
2022/06/22 02:54:09;;;;;;;;;20.50;19.50;;;;;24.95;50.18;100377.44;146611;589;45018;-71
2022/06/22 02:57:10;;;;;;;;;20.25;18.25;;;;;24.97;50.32;100379.19;146611;575;45046;-71
2022/06/22 03:00:04;;;;;;;;;18.50;17.50;;;;;24.93;50.93;100384.56;146610;566;45018;-71
2022/06/22 03:03:22;;;;;;;;;21.25;19.50;;;;;24.85;50.32;100388.19;146609;572;45925;-72
2022/06/22 03:06:18;;;;;;;;;17.75;17.00;;;;;24.80;50.67;100400.63;146608;650;46010;-73
2022/06/22 03:09:12;;;;;;;;;17.75;17.75;;;;;24.80;51.22;100402.41;146607;691;46009;-73
2022/06/22 03:12:05;;;;;;;;;21.25;19.75;;;;;24.75;51.70;100406.87;146610;593;46010;-72
2022/06/22 03:15:05;;;;;;;;;20.25;17.25;;;;;24.70;51.71;100408.69;146606;573;46925;-70
2022/06/22 03:18:02;;;;;;;;;24.00;22.75;;;;;24.63;51.29;100418.50;146609;572;46018;-69
2022/06/22 03:21:05;;;;;;;;;22.00;18.00;;;;;24.62;51.12;100425.59;146609;609;46018;-69
2022/06/22 03:24:44;;;;;;;;;20.00;18.50;;;;;23.90;50.56;100293.84;146608;719;46018;-69
2022/06/22 03:27:44;;;;;;;;;17.75;16.50;;;;;24.77;50.90;100426.31;146606;611;46018;-71
2022/06/22 03:31:21;;;;;;;;;22.75;20.50;;;;;24.59;50.53;100387.62;146606;581;46021;-68
2022/06/22 03:34:20;;;;;;;;;18.50;17.50;;;;;24.75;51.41;100417.50;146609;578;46010;-72
2022/06/22 03:37:20;;;;;;;;;21.50;19.25;;;;;24.74;51.32;100427.22;146608;584;46018;-72
2022/06/22 03:40:25;;;;;;;;;19.25;17.25;;;;;24.74;51.34;100429.00;146610;617;46018;-71
2022/06/22 03:43:27;;;;;;;;;21.50;20.00;;;;;24.76;51.70;100420.09;146610;616;46010;-72
2022/06/22 03:46:32;;;;;;;;;22.50;17.75;;;;;24.75;51.91;100420.16;146608;618;46008;-73
2022/06/22 03:49:38;;;;;;;;;23.25;20.25;;;;;24.72;51.95;100420.19;146610;584;45018;-72
2022/06/22 03:53:00;;;;;;;;;26.75;22.50;;;;;24.73;51.40;100413.97;146608;612;46009;-73
2022/06/22 03:55:57;;;;;;;;;20.75;20.00;;;;;24.77;52.27;100421.00;146605;584;46018;-72
2022/06/22 03:58:52;;;;;;;;;17.25;17.25;;;;;24.82;52.67;100425.34;146609;602;46008;-76
2022/06/22 04:01:45;;;;;;;;;23.25;21.75;;;;;24.86;52.48;100427.09;146610;583;45030;-75
2022/06/22 04:04:38;;;;;;;;;18.50;18.50;;;;;24.91;53.51;100427.00;146605;701;46018;-76
2022/06/22 04:07:36;;;;;;;;;22.00;20.00;;;;;24.96;53.29;100424.31;146608;576;46018;-74
2022/06/22 04:10:52;;;;;;;;;22.75;21.00;;;;;25.01;52.42;100427.75;146610;566;46008;-76
2022/06/22 04:14:35;;;;;;;;;30.75;25.00;;;;;25.13;51.51;100427.66;146607;601;46018;-76
2022/06/22 04:17:53;;;;;;;;;22.00;20.50;;;;;25.32;51.11;100426.50;146607;576;46019;-73
2022/06/22 04:21:01;;;;;;;;;17.00;16.75;;;;;25.55;52.29;100430.63;146611;632;46010;-72
2022/06/22 04:24:13;;;;;;;;;21.50;19.25;;;;;25.83;52.43;100432.88;146609;593;46008;-74
2022/06/22 04:27:20;;;;;;;;;23.25;18.50;;;;;26.10;51.81;100426.19;146609;634;46018;-76
2022/06/22 04:30:25;;;;;;;;;25.00;22.00;;;;;26.28;51.42;100439.16;146608;663;46010;-75
2022/06/22 04:33:25;;;;;;;;;20.75;19.25;;;;;26.40;52.23;100432.75;146609;601;46018;-73
2022/06/22 04:36:26;;;;;;;;;24.25;21.75;;;;;26.54;51.06;100433.41;146609;599;45018;-72
2022/06/22 04:39:31;;;;;;;;;24.25;21.75;;;;;26.70;49.93;100436.66;146604;569;46019;-75
2022/06/22 04:42:23;;;;;;;;;25.50;23.75;;;;;26.90;51.12;100442.44;146608;577;46008;-75
2022/06/22 04:45:29;;;;;;;;;25.50;23.00;;;;;27.16;49.58;100446.38;146607;587;46019;-72
2022/06/22 04:48:29;;;;;;;;;29.75;27.25;;;;;27.40;49.48;100452.94;146606;577;46008;-72
2022/06/22 04:51:26;;;;;;;;;29.50;27.50;;;;;27.59;48.31;100443.63;146606;611;46018;-72
2022/06/22 04:57:46;;;;;;;;;23.50;21.50;;;;;27.99;48.17;100457.81;146607;569;46012;-71
2022/06/22 05:00:38;;;;;;;;;24.50;22.75;;;;;27.30;47.88;100291.69;146609;664;46008;-82
2022/06/22 05:03:32;;;;;;;;;28.50;25.75;;;;;28.39;47.22;100456.81;146606;566;46010;-84
2022/06/22 05:06:36;;;;;;;;;25.00;23.25;;;;;28.55;46.86;100459.03;146607;646;46008;-84
2022/06/22 05:09:50;;;;;;;;;28.25;26.50;;;;;28.74;46.59;100458.53;146608;597;46010;-84
2022/06/22 05:12:56;;;;;;;;;27.50;23.75;;;;;28.93;46.06;100448.22;146609;639;46008;-78
2022/06/22 05:15:51;;;;;;;;;31.25;27.50;;;;;29.11;46.86;100452.19;146607;615;46020;-82
2022/06/22 05:18:46;;;;;;;;;24.00;23.00;;;;;29.26;46.21;100451.72;146611;599;45018;-80
2022/06/22 05:21:45;;;;;;;;;29.25;25.75;;;;;29.41;45.78;100458.41;146608;582;46008;-76
2022/06/22 05:24:43;;;;;;;;;27.25;26.00;;;;;29.56;44.96;100462.38;146609;598;46008;-69
2022/06/22 05:27:44;;;;;;;;;29.00;27.25;;;;;29.68;44.46;100462.88;146605;629;46010;-69
2022/06/22 05:30:44;;;;;;;;;25.25;23.75;;;;;29.79;44.54;100462.56;146608;578;46019;-69
2022/06/22 05:33:40;;;;;;;;;19.75;19.75;;;;;29.88;44.13;100458.72;146608;645;46018;-65
2022/06/22 05:36:36;;;;;;;;;24.75;23.50;;;;;29.97;44.71;100465.53;146605;579;46010;-64
2022/06/22 05:39:28;;;;;;;;;26.00;24.50;;;;;30.08;43.81;100466.06;146606;605;46020;-66
2022/06/22 05:42:20;;;;;;;;;28.75;26.50;;;;;30.11;43.59;100465.97;146606;637;46010;-70
2022/06/22 05:45:25;;;;;;;;;27.75;25.00;;;;;30.18;43.17;100469.28;146606;579;46018;-66
2022/06/22 05:48:28;;;;;;;;;28.75;26.50;;;;;30.20;44.11;100463.00;146606;573;46008;-66
2022/06/22 05:51:56;;;;;;;;;33.75;26.50;;;;;30.33;44.35;100460.78;146605;564;46021;-67
2022/06/22 05:55:04;;;;;;;;;30.50;25.75;;;;;30.50;44.24;100474.47;146607;569;45018;-68
2022/06/22 05:58:14;;;;;;;;;32.25;29.50;;;;;30.68;43.38;100470.22;146606;609;46018;-74
2022/06/22 06:01:15;;;;;;;;;26.00;23.25;;;;;30.85;43.74;100466.12;146611;602;46018;-73
2022/06/22 06:04:33;;;;;;;;;23.50;23.50;;;;;31.03;42.95;100476.16;146606;609;46018;-72
2022/06/22 06:07:41;;;;;;;;;28.75;27.00;;;;;31.20;42.72;100480.84;146607;593;46019;-73
2022/06/22 06:10:47;;;;;;;;;27.25;25.75;;;;;31.36;42.63;100486.53;146607;594;46010;-73
2022/06/22 06:13:43;;;;;;;;;27.25;26.25;;;;;31.43;42.91;100474.63;146606;591;46008;-69
2022/06/22 06:16:50;;;;;;;;;25.25;22.25;;;;;31.57;42.34;100482.16;146609;594;46010;-70
2022/06/22 06:19:46;;;;;;;;;26.25;23.75;;;;;31.63;43.11;100482.78;146607;613;46008;-73
2022/06/22 06:22:39;;;;;;;;;26.25;24.00;;;;;31.65;44.15;100488.06;146608;580;46010;-72
2022/06/22 06:29:08;;;;;;;;;27.00;24.00;;;;;31.58;42.89;100495.47;146604;655;46010;-69
2022/06/22 06:32:40;;;;;;;;;28.25;25.25;;;;;31.60;42.79;100484.72;146609;598;46018;-69
2022/06/22 06:36:12;;;;;;;;;27.75;25.75;;;;;31.73;43.18;100478.78;146609;593;45045;-69
2022/06/22 06:39:07;;;;;;;;;26.50;25.75;;;;;31.84;41.88;100474.78;146605;604;46018;-69
2022/06/22 06:42:08;;;;;;;;;25.75;23.25;;;;;31.87;41.45;100482.69;146603;607;46018;-70
2022/06/22 06:45:03;;;;;;;;;28.00;25.25;;;;;31.90;41.59;100486.19;146605;583;46018;-70
2022/06/22 06:48:01;;;;;;;;;23.00;23.00;;;;;31.96;41.91;100490.41;146607;584;46018;-69
2022/06/22 06:50:57;;;;;;;;;24.00;21.00;;;;;32.01;42.83;100488.41;146608;572;46008;-68
2022/06/22 06:54:19;;;;;;;;;22.50;20.50;;;;;32.05;42.53;100489.16;146607;635;46019;-69
2022/06/22 06:57:19;;;;;;;;;22.50;21.50;;;;;32.17;42.64;100485.97;146605;679;45044;-69
2022/06/22 07:00:16;;;;;;;;;25.25;23.75;;;;;32.31;43.78;100485.41;146607;569;46019;-68
2022/06/22 07:03:16;;;;;;;;;25.50;21.00;;;;;32.36;42.59;100486.91;146608;626;46008;-68
2022/06/22 07:06:09;;;;;;;;;23.25;21.00;;;;;32.37;45.25;100482.44;146607;748;46018;-70
2022/06/22 07:09:39;;;;;;;;;22.50;21.25;;;;;32.35;43.64;100476.28;146608;599;46018;-71
2022/06/22 07:12:43;;;;;;;;;26.25;23.00;;;;;32.43;43.78;100479.47;146629;584;45010;-69
2022/06/22 07:15:42;;;;;;;;;22.25;18.25;;;;;32.54;43.02;100484.44;146627;586;46008;-69
2022/06/22 07:18:40;;;;;;;;;23.25;22.25;;;;;32.64;43.93;100489.31;146631;600;44029;-69
2022/06/22 07:22:16;;;;;;;;;23.50;22.00;;;;;31.87;43.28;100344.19;146627;596;45031;-71
2022/06/22 07:25:38;;;;;;;;;23.00;22.75;;;;;31.84;42.77;100325.53;146630;614;45010;-71
2022/06/22 07:28:37;;;;;;;;;19.25;19.25;;;;;32.83;44.70;100488.50;146628;591;45018;-73
2022/06/22 07:31:41;;;;;;;;;24.50;22.50;;;;;32.87;44.07;100479.38;146629;624;45012;-72
2022/06/22 07:34:46;;;;;;;;;26.00;24.75;;;;;33.03;43.80;100479.59;146625;626;45923;-72
2022/06/22 07:37:44;;;;;;;;;24.00;22.00;;;;;33.24;43.17;100488.44;146627;705;45018;-72
2022/06/22 07:40:39;;;;;;;;;20.00;19.00;;;;;33.46;42.50;100483.81;146629;596;45008;-74
2022/06/22 07:43:34;;;;;;;;;22.25;21.75;;;;;33.59;43.81;100477.87;146631;564;45011;-73
2022/06/22 07:46:46;;;;;;;;;24.50;23.50;;;;;33.67;42.53;100490.00;146628;611;45018;-74
2022/06/22 07:50:08;;;;;;;;;28.75;24.00;;;;;33.63;42.84;100471.41;146628;609;45018;-74
2022/06/22 07:53:19;;;;;;;;;25.75;25.75;;;;;33.81;41.44;100486.66;146631;604;45010;-74
2022/06/22 07:56:53;;;;;;;;;23.75;22.75;;;;;33.94;41.68;100487.78;146630;643;45010;-74
2022/06/22 08:00:06;;;;;;;;;25.75;23.75;;;;;34.00;41.33;100484.78;146623;576;46018;-73
2022/06/22 08:03:38;;;;;;;;;25.75;25.25;;;;;34.09;40.30;100498.75;146628;563;45018;-73
2022/06/22 08:06:42;;;;;;;;;22.00;20.75;;;;;34.12;40.47;100485.16;146627;609;45019;-73
2022/06/22 08:10:18;;;;;;;;;27.00;25.25;;;;;34.12;39.72;100486.03;146618;590;46010;-73
2022/06/22 08:13:32;;;;;;;;;26.75;24.00;;;;;34.18;40.78;100485.72;146607;570;45925;-74
2022/06/22 08:16:32;;;;;;;;;24.00;22.25;;;;;34.30;38.98;100486.03;146608;578;46010;-74
2022/06/22 08:19:27;;;;;;;;;27.00;24.75;;;;;34.37;39.82;100482.09;146608;594;46008;-74
2022/06/22 08:22:19;;;;;;;;;25.00;24.00;;;;;34.47;39.76;100481.50;146607;570;45033;-74
2022/06/22 08:25:12;;;;;;;;;24.00;24.00;;;;;34.56;39.31;100479.34;146609;603;46008;-74
2022/06/22 08:28:06;;;;;;;;;24.00;22.50;;;;;34.63;38.88;100473.53;146608;637;45019;-74
2022/06/22 08:31:00;;;;;;;;;25.00;23.00;;;;;34.72;39.53;100467.66;146611;566;45018;-74
2022/06/22 08:34:01;;;;;;;;;22.50;21.50;;;;;34.85;38.68;100465.19;146607;582;46010;-74
2022/06/22 08:37:06;;;;;;;;;24.75;23.50;;;;;34.92;38.77;100463.00;146605;613;46018;-73
2022/06/22 08:40:11;;;;;;;;;25.50;24.00;;;;;34.94;39.23;100470.06;146608;566;46018;-74
2022/06/22 08:43:44;;;;;;;;;22.50;19.75;;;;;34.99;38.99;100466.28;146605;597;46925;-74
2022/06/22 08:47:22;;;;;;;;;24.00;23.00;;;;;35.16;39.57;100467.09;146606;667;46018;-74
2022/06/22 08:50:50;;;;;;;;;25.75;22.50;;;;;35.32;40.20;100472.50;146609;573;45019;-74
2022/06/22 08:54:28;;;;;;;;;25.75;23.75;;;;;35.44;40.09;100462.88;146610;578;45018;-73
2022/06/22 08:57:54;;;;;;;;;22.50;21.50;;;;;35.49;40.39;100459.94;146607;583;46018;-73
2022/06/22 09:01:07;;;;;;;;;22.25;22.00;;;;;35.57;39.97;100460.37;146608;591;46018;-73
2022/06/22 09:04:46;;;;;;;;;20.50;18.75;;;;;35.68;38.50;100457.06;146608;615;46010;-73
2022/06/22 09:08:25;;;;;;;;;20.50;20.50;;;;;35.84;37.92;100458.78;146607;589;46010;-74
2022/06/22 09:11:51;;;;;;;;;25.25;25.25;;;;;35.92;39.21;100460.16;146607;606;45925;-74
2022/06/22 09:15:13;;;;;;;;;21.50;20.75;;;;;35.29;39.35;100347.81;146609;579;45019;-74
2022/06/22 09:18:48;;;;;;;;;24.00;22.25;;;;;35.99;39.54;100458.84;146608;599;45495;-74
2022/06/22 09:22:12;;;;;;;;;26.00;23.00;;;;;36.03;39.37;100455.91;146607;582;46010;-75
2022/06/22 09:25:20;;;;;;;;;24.75;22.75;;;;;36.02;39.23;100458.69;146608;626;46018;-74
2022/06/22 09:28:28;;;;;;;;;23.75;21.75;;;;;35.92;39.32;100462.84;146609;590;46011;-74
2022/06/22 09:32:01;;;;;;;;;25.50;23.25;;;;;34.81;39.02;100306.53;146608;598;46018;-75
2022/06/22 09:35:42;;;;;;;;;24.25;23.00;;;;;34.87;38.42;100362.75;146610;599;46012;-75
2022/06/22 09:39:14;;;;;;;;;25.50;24.75;;;;;35.20;39.86;100451.63;146610;573;46008;-74
2022/06/22 09:42:39;;;;;;;;;23.75;22.50;;;;;35.24;38.45;100463.13;146609;573;46012;-74
2022/06/22 09:46:15;;;;;;;;;29.50;23.75;;;;;35.22;37.05;100462.34;146611;596;45018;-75
2022/06/22 09:49:54;;;;;;;;;25.50;23.50;;;;;35.27;36.32;100460.25;146607;596;46018;-74
2022/06/22 09:53:23;;;;;;;;;20.50;20.50;;;;;35.22;36.87;100455.13;146609;588;46010;-74
2022/06/22 09:57:15;;;;;;;;;23.75;22.50;;;;;35.21;35.25;100453.38;146608;610;46010;-75
2022/06/22 10:00:21;;;;;;;;;24.75;22.50;;;;;35.23;37.23;100459.53;146611;614;45018;-75
2022/06/22 10:03:43;;;;;;;;;22.00;21.75;;;;;34.89;35.25;100403.91;146609;570;46010;-74
2022/06/22 10:07:04;;;;;;;;;25.50;23.25;;;;;35.24;36.56;100452.34;146605;589;46019;-75
2022/06/22 10:10:30;;;;;;;;;19.25;18.50;;;;;35.31;35.25;100448.34;146608;606;46018;-76
2022/06/22 10:13:53;;;;;;;;;20.75;20.00;;;;;35.38;35.98;100437.13;146606;671;46019;-74
2022/06/22 10:17:38;;;;;;;;;22.25;21.25;;;;;35.31;35.88;100442.94;146608;585;46010;-75
2022/06/22 10:20:48;;;;;;;;;23.25;21.25;;;;;35.25;36.28;100440.59;146608;588;46008;-77
2022/06/22 10:24:13;;;;;;;;;21.25;20.25;;;;;35.16;35.01;100439.28;146607;609;46018;-78
2022/06/22 10:27:59;;;;;;;;;23.50;22.50;;;;;35.10;36.15;100431.53;146607;663;46009;-75
2022/06/22 10:31:43;;;;;;;;;19.25;18.50;;;;;34.18;36.58;100280.34;146609;578;46010;-77
2022/06/22 10:35:47;;;;;;;;;20.25;19.00;;;;;34.72;36.33;100383.31;146608;651;45044;-77
2022/06/22 10:39:07;;;;;;;;;20.00;19.00;;;;;34.56;35.67;100356.34;146608;655;46010;-76
2022/06/22 10:46:05;;;;;;;;;17.75;16.50;;;;;35.02;32.35;100422.97;146609;593;46018;-77
2022/06/22 10:49:34;;;;;;;;;19.50;18.00;;;;;35.07;34.56;100418.22;146609;573;46010;-74
2022/06/22 10:53:01;;;;;;;;;20.25;19.00;;;;;35.22;34.90;100419.22;146606;615;46010;-74
2022/06/22 10:56:16;;;;;;;;;20.00;19.75;;;;;35.33;34.27;100412.25;146608;593;46010;-72
2022/06/22 10:59:39;;;;;;;;;23.75;20.50;;;;;35.52;35.57;100411.22;146609;580;46010;-73
2022/06/22 11:03:09;;;;;;;;;19.50;19.00;;;;;35.69;33.81;100407.56;146607;599;46011;-73
2022/06/22 11:06:25;;;;;;;;;21.25;19.75;;;;;35.76;34.33;100401.69;146609;694;46010;-73
2022/06/22 11:09:34;;;;;;;;;22.50;20.25;;;;;35.87;34.34;100408.31;146607;576;46018;-73
2022/06/22 11:13:12;;;;;;;;;21.00;20.00;;;;;35.08;33.32;100245.72;146610;613;46010;-74
2022/06/22 11:16:45;;;;;;;;;24.25;21.75;;;;;36.11;34.06;100400.59;146604;588;46008;-73
2022/06/22 11:20:13;;;;;;;;;21.25;20.75;;;;;36.21;33.16;100401.78;146608;610;46012;-74
2022/06/22 11:23:19;;;;;;;;;20.00;18.25;;;;;36.26;33.55;100397.84;146609;594;46008;-73
2022/06/22 11:34:13;;;;;;;;;17.00;16.25;;;;;35.80;31.88;100368.22;146608;637;45019;-73
2022/06/22 11:37:35;;;;;;;;;18.25;18.25;;;;;35.71;31.68;100360.66;146605;585;46018;-74
2022/06/22 11:41:00;;;;;;;;;19.00;18.50;;;;;34.98;33.38;100236.38;146611;584;46010;-74
2022/06/22 11:44:20;;;;;;;;;20.75;18.75;;;;;35.45;33.42;100305.53;146606;608;46018;-74
2022/06/22 11:47:30;;;;;;;;;22.25;19.75;;;;;35.75;32.26;100345.16;146606;599;46019;-74
2022/06/22 11:50:49;;;;;;;;;20.75;19.75;;;;;35.80;32.84;100341.22;146607;578;46018;-74
2022/06/22 11:54:33;;;;;;;;;18.00;15.50;;;;;35.86;33.04;100329.22;146609;579;45020;-76
2022/06/22 11:58:00;;;;;;;;;19.00;18.75;;;;;34.97;31.72;100175.38;146607;569;45925;-74
2022/06/22 12:01:28;;;;;;;;;20.50;18.50;;;;;35.84;30.86;100337.38;146608;571;45029;-75
2022/06/22 12:04:58;;;;;;;;;20.00;18.50;;;;;35.82;31.28;100336.59;146606;593;47018;-76
2022/06/22 12:08:30;;;;;;;;;19.75;18.00;;;;;34.90;31.96;100182.97;146608;581;46010;-75
2022/06/22 12:12:19;;;;;;;;;17.25;16.75;;;;;35.91;32.54;100340.56;146608;592;46010;-73
2022/06/22 12:15:40;;;;;;;;;20.00;18.25;;;;;36.04;32.15;100340.72;146609;571;46018;-72
2022/06/22 12:19:06;;;;;;;;;20.75;16.50;;;;;36.20;30.79;100343.34;146608;586;46019;-75
2022/06/22 12:22:40;;;;;;;;;19.00;18.50;;;;;35.04;31.82;100122.03;146609;609;45018;-75
2022/06/22 12:26:19;;;;;;;;;18.75;18.50;;;;;35.75;28.21;100257.00;146611;640;46018;-75
2022/06/22 12:29:39;;;;;;;;;18.25;17.00;;;;;36.25;30.22;100328.63;146610;604;46012;-73
2022/06/22 12:33:03;;;;;;;;;19.00;18.00;;;;;36.16;30.11;100331.87;146608;664;46009;-74
2022/06/22 12:36:07;;;;;;;;;20.50;19.00;;;;;36.13;31.34;100331.22;146610;615;47010;-75
2022/06/22 12:39:43;;;;;;;;;21.25;19.50;;;;;36.10;31.47;100307.97;146607;590;46011;-76
2022/06/22 12:42:52;;;;;;;;;20.25;18.50;;;;;35.88;30.28;100313.78;146609;570;46010;-76
2022/06/22 12:46:19;;;;;;;;;22.00;20.50;;;;;35.90;31.74;100302.91;146603;581;46018;-75
2022/06/22 12:50:08;;;;;;;;;20.75;20.25;;;;;35.91;32.23;100308.19;146605;592;46031;-75
2022/06/22 12:53:18;;;;;;;;;20.25;19.00;;;;;35.88;31.79;100297.59;146611;728;45018;-74
2022/06/22 12:56:44;;;;;;;;;19.75;19.50;;;;;35.88;31.08;100299.44;146608;660;46010;-74
2022/06/22 12:59:54;;;;;;;;;18.50;18.00;;;;;35.85;31.13;100292.38;146609;584;46008;-74
2022/06/22 13:02:48;;;;;;;;;19.25;18.25;;;;;35.90;29.84;100279.50;146611;648;46012;-75
2022/06/22 13:05:41;;;;;;;;;20.00;19.50;;;;;35.92;30.29;100282.06;146608;565;45043;-74
2022/06/22 13:08:33;;;;;;;;;21.00;18.75;;;;;35.95;29.72;100276.50;146610;577;45018;-74
2022/06/22 13:11:29;;;;;;;;;16.75;16.25;;;;;36.00;30.26;100285.19;146611;609;46018;-74
2022/06/22 13:14:40;;;;;;;;;19.00;18.50;;;;;35.58;32.10;100197.88;146607;660;46018;-74
2022/06/22 13:17:49;;;;;;;;;18.25;17.25;;;;;36.24;30.59;100289.09;146608;587;46923;-72
2022/06/22 13:21:16;;;;;;;;;16.50;15.50;;;;;36.31;29.91;100276.94;146609;594;46010;-75
2022/06/22 13:24:49;;;;;;;;;20.00;20.00;;;;;36.30;29.79;100271.66;146612;564;46008;-75
2022/06/22 13:28:05;;;;;;;;;17.25;17.25;;;;;36.32;30.92;100267.00;146604;592;46010;-75
2022/06/22 13:31:06;;;;;;;;;18.25;16.00;;;;;36.31;29.58;100263.44;146609;663;46008;-75
2022/06/22 13:34:15;;;;;;;;;15.75;15.50;;;;;36.31;29.47;100260.75;146608;592;47010;-75
2022/06/22 13:38:01;;;;;;;;;14.75;12.75;;;;;36.16;29.13;100250.91;146607;569;46008;-76
2022/06/22 13:41:35;;;;;;;;;15.75;15.75;;;;;36.12;29.55;100249.38;146608;571;46010;-76
2022/06/22 13:45:19;;;;;;;;;15.75;15.00;;;;;36.10;29.10;100243.19;146608;587;46008;-77
2022/06/22 13:48:46;;;;;;;;;17.00;16.50;;;;;36.17;28.25;100241.88;146611;564;45030;-77
2022/06/22 13:52:19;;;;;;;;;14.75;14.00;;;;;35.77;29.33;100174.19;146608;564;46018;-76
2022/06/22 13:55:39;;;;;;;;;17.50;15.25;;;;;36.25;30.39;100247.63;146607;599;46012;-76
2022/06/22 13:58:45;;;;;;;;;14.75;14.25;;;;;36.25;27.97;100236.84;146608;602;46922;-77
2022/06/22 14:01:43;;;;;;;;;10.75;10.75;;;;;36.22;27.92;100238.88;146610;576;46012;-73
2022/06/22 14:04:43;;;;;;;;;16.50;15.50;;;;;36.13;28.57;100229.50;146605;570;46010;-75
2022/06/22 14:07:57;;;;;;;;;18.00;14.50;;;;;36.08;28.52;100226.25;146609;563;45025;-74
2022/06/22 14:10:58;;;;;;;;;15.50;15.00;;;;;36.00;29.57;100223.13;146608;649;46018;-74
2022/06/22 14:14:23;;;;;;;;;16.00;16.00;;;;;35.97;29.42;100221.47;146610;588;45018;-75
2022/06/22 14:17:43;;;;;;;;;16.00;15.25;;;;;35.94;28.69;100213.56;146605;592;46019;-74
2022/06/22 14:21:13;;;;;;;;;16.50;16.50;;;;;35.12;27.99;100085.59;146607;582;46010;-75
2022/06/22 14:24:42;;;;;;;;;14.00;12.75;;;;;35.49;30.44;100144.47;146609;592;45019;-76
2022/06/22 14:28:27;;;;;;;;;16.50;14.50;;;;;35.89;29.84;100212.12;146613;611;45029;-74
2022/06/22 14:31:48;;;;;;;;;13.50;13.25;;;;;35.92;29.31;100202.03;146607;574;46019;-76
2022/06/22 14:35:28;;;;;;;;;16.00;15.25;;;;;36.03;29.65;100198.69;146610;685;46010;-77
2022/06/22 14:38:34;;;;;;;;;17.00;16.00;;;;;36.10;30.19;100204.56;146607;581;46008;-76
2022/06/22 14:41:54;;;;;;;;;15.50;14.50;;;;;36.03;30.41;100177.97;146608;620;46010;-77
2022/06/22 14:45:06;;;;;;;;;17.50;16.50;;;;;36.11;28.85;100185.56;146611;643;46008;-77
2022/06/22 14:48:06;;;;;;;;;17.00;16.00;;;;;36.10;29.44;100177.56;146610;581;46019;-76
2022/06/22 14:51:39;;;;;;;;;17.50;15.00;;;;;36.15;30.28;100181.72;146610;576;46008;-76
2022/06/22 14:54:51;;;;;;;;;16.25;16.25;;;;;36.13;29.55;100186.31;146610;624;45032;-76
2022/06/22 14:58:18;;;;;;;;;17.75;16.00;;;;;36.02;30.63;100172.63;146611;616;46018;-79